createdAt,value
2023-02-26T00:01:16.948Z,4.40
2023-02-26T00:03:43.876Z,4.30
2023-02-26T00:06:10.612Z,4.40
2023-02-26T00:08:37.423Z,4.30
2023-02-26T00:11:07.742Z,4.20
2023-02-26T00:13:35.884Z,4.10
2023-02-26T00:16:06.040Z,4.00
2023-02-26T00:18:32.849Z,3.80
2023-02-26T00:20:59.744Z,3.80
2023-02-26T00:23:26.515Z,3.80
2023-02-26T00:25:53.173Z,3.80
2023-02-26T00:28:20.108Z,3.80
2023-02-26T00:30:47.035Z,3.80
2023-02-26T00:33:13.904Z,3.80
2023-02-26T00:35:40.742Z,3.60
2023-02-26T00:38:10.567Z,3.60
2023-02-26T00:40:43.309Z,3.60
2023-02-26T00:43:34.641Z,3.60
2023-02-26T00:46:04.267Z,3.70
2023-02-26T00:49:02.697Z,3.50
2023-02-26T00:51:45.570Z,3.50
2023-02-26T00:54:16.507Z,3.50
2023-02-26T00:56:43.318Z,3.40
2023-02-26T00:59:09.958Z,3.20
2023-02-26T01:01:36.655Z,3.20
2023-02-26T01:04:03.613Z,3.20
2023-02-26T01:06:33.999Z,3.20
2023-02-26T01:09:15.421Z,3.10
2023-02-26T01:11:42.474Z,3.10
2023-02-26T01:14:09.472Z,3.00
2023-02-26T01:17:01.489Z,3.10
2023-02-26T01:19:37.183Z,3.10
2023-02-26T01:22:31.149Z,3.00
2023-02-26T01:25:08.849Z,3.00
2023-02-26T01:27:35.973Z,2.90
2023-02-26T01:30:04.761Z,3.00
2023-02-26T01:33:02.255Z,3.00
2023-02-26T01:35:56.389Z,3.00
2023-02-26T01:38:36.846Z,3.10
2023-02-26T01:41:22.403Z,3.10
2023-02-26T01:44:04.909Z,3.10
2023-02-26T01:46:47.103Z,3.00
2023-02-26T01:49:17.095Z,3.10
2023-02-26T01:51:53.986Z,3.20
2023-02-26T01:54:23.742Z,3.10
2023-02-26T01:56:55.457Z,3.00
2023-02-26T01:59:24.659Z,2.80
2023-02-26T02:01:54.491Z,2.80
2023-02-26T02:04:23.395Z,2.80
2023-02-26T02:06:50.424Z,2.80
2023-02-26T02:09:17.016Z,2.70
2023-02-26T02:11:59.925Z,2.80
2023-02-26T02:14:57.678Z,2.70
2023-02-26T02:17:39.247Z,2.80
2023-02-26T02:20:26.089Z,2.80
2023-02-26T02:23:38.153Z,2.70
2023-02-26T02:26:18.791Z,2.70
2023-02-26T02:29:16.559Z,2.60
2023-02-26T02:31:54.904Z,2.50
2023-02-26T02:34:36.037Z,2.60
2023-02-26T02:37:29.038Z,2.60
2023-02-26T02:40:04.552Z,2.50
2023-02-26T02:42:49.710Z,2.60
2023-02-26T02:45:44.528Z,2.40
2023-02-26T02:48:28.782Z,2.40
2023-02-26T02:51:00.579Z,2.40
2023-02-26T02:53:34.036Z,2.40
2023-02-26T02:56:31.024Z,2.50
2023-02-26T02:59:25.331Z,2.50
2023-02-26T03:02:04.092Z,2.50
2023-02-26T03:04:30.717Z,2.50
2023-02-26T03:06:57.441Z,2.30
2023-02-26T03:09:24.337Z,2.30
2023-02-26T03:11:51.014Z,2.10
2023-02-26T03:14:18.341Z,2.10
2023-02-26T03:17:17.007Z,2.00
2023-02-26T03:20:24.110Z,2.00
2023-02-26T03:23:22.394Z,2.00
2023-02-26T03:25:55.310Z,2.00
2023-02-26T03:28:25.893Z,1.80
2023-02-26T03:30:58.815Z,1.80
2023-02-26T03:33:54.550Z,1.80
2023-02-26T03:36:27.839Z,1.80
2023-02-26T03:39:06.678Z,1.80
2023-02-26T03:42:08.105Z,1.80
2023-02-26T03:44:44.151Z,1.80
2023-02-26T03:47:14.419Z,1.70
2023-02-26T03:49:58.323Z,1.90
2023-02-26T03:52:28.694Z,1.80
2023-02-26T03:55:08.644Z,1.80
2023-02-26T03:57:35.706Z,1.80
2023-02-26T04:00:02.479Z,1.70
2023-02-26T04:02:37.168Z,1.60
2023-02-26T04:05:11.582Z,1.50
2023-02-26T04:07:39.767Z,1.30
2023-02-26T04:10:07.911Z,1.30
2023-02-26T04:12:34.798Z,1.40
2023-02-26T04:15:02.313Z,1.40
2023-02-26T04:17:30.415Z,1.40
2023-02-26T04:19:57.360Z,1.40
2023-02-26T04:22:24.028Z,1.40
2023-02-26T04:24:50.749Z,1.30
2023-02-26T04:27:17.440Z,1.40
2023-02-26T04:29:44.047Z,1.40
2023-02-26T04:32:10.784Z,1.30
2023-02-26T04:34:37.457Z,1.30
2023-02-26T04:37:04.766Z,1.30
2023-02-26T04:39:31.586Z,1.30
2023-02-26T04:41:58.202Z,1.30
2023-02-26T04:44:24.925Z,1.40
2023-02-26T04:46:51.532Z,1.30
2023-02-26T04:49:18.163Z,1.20
2023-02-26T04:51:44.930Z,1.30
2023-02-26T04:54:11.540Z,1.30
2023-02-26T04:56:38.193Z,1.30
2023-02-26T04:59:04.849Z,1.20
2023-02-26T05:01:31.693Z,1.20
2023-02-26T05:03:58.363Z,1.10
2023-02-26T05:06:25.550Z,1.00
2023-02-26T05:08:52.482Z,0.90
2023-02-26T05:11:19.116Z,1.00
2023-02-26T05:13:45.741Z,1.10
2023-02-26T05:16:12.699Z,0.90
2023-02-26T05:18:39.477Z,0.90
2023-02-26T05:21:06.289Z,0.90
2023-02-26T05:23:33.262Z,0.90
2023-02-26T05:26:00.273Z,0.90
2023-02-26T05:28:27.206Z,0.90
2023-02-26T05:30:55.789Z,0.90
2023-02-26T05:33:22.406Z,0.70
2023-02-26T05:35:49.268Z,0.80
2023-02-26T05:38:16.179Z,0.80
2023-02-26T05:40:42.863Z,0.80
2023-02-26T05:43:10.338Z,0.80
2023-02-26T05:45:36.913Z,0.80
2023-02-26T05:48:03.981Z,0.80
2023-02-26T05:50:30.722Z,0.80
2023-02-26T05:52:57.746Z,0.80
2023-02-26T05:55:24.736Z,0.80
2023-02-26T05:57:51.359Z,0.80
2023-02-26T06:00:18.646Z,0.90
2023-02-26T06:02:45.729Z,0.90
2023-02-26T06:05:12.548Z,0.90
2023-02-26T06:07:39.224Z,0.80
2023-02-26T06:10:08.520Z,0.70
2023-02-26T06:12:35.628Z,0.60
2023-02-26T06:15:02.659Z,0.60
2023-02-26T06:17:29.387Z,0.80
2023-02-26T06:19:55.975Z,0.80
2023-02-26T06:22:22.793Z,0.80
2023-02-26T06:24:49.811Z,0.90
2023-02-26T06:27:16.788Z,0.70
2023-02-26T06:29:43.467Z,0.60
2023-02-26T06:32:10.174Z,0.70
2023-02-26T06:34:37.636Z,0.70
2023-02-26T06:37:04.643Z,0.50
2023-02-26T06:39:31.817Z,0.70
2023-02-26T06:41:58.918Z,0.60
2023-02-26T06:44:25.533Z,0.70
2023-02-26T06:46:52.552Z,0.60
2023-02-26T06:49:19.293Z,0.60
2023-02-26T06:51:46.207Z,0.60
2023-02-26T06:54:12.863Z,0.60
2023-02-26T06:56:39.517Z,0.50
2023-02-26T06:59:06.123Z,0.50
2023-02-26T07:01:33.813Z,0.50
2023-02-26T07:04:00.592Z,0.40
2023-02-26T07:06:28.251Z,0.50
2023-02-26T07:08:55.704Z,0.50
2023-02-26T07:11:23.075Z,0.60
2023-02-26T07:13:51.299Z,0.50
2023-02-26T07:16:18.011Z,0.60
2023-02-26T07:18:44.653Z,0.60
2023-02-26T07:21:11.262Z,0.60
2023-02-26T07:23:37.989Z,0.70
2023-02-26T07:26:04.877Z,0.70
2023-02-26T07:28:31.697Z,0.80
2023-02-26T07:30:58.676Z,0.90
2023-02-26T07:33:26.532Z,0.90
2023-02-26T07:35:53.349Z,0.90
2023-02-26T07:38:20.380Z,0.80
2023-02-26T07:40:47.739Z,0.70
2023-02-26T07:43:14.563Z,0.80
2023-02-26T07:45:41.126Z,0.80
2023-02-26T07:48:07.754Z,0.70
2023-02-26T07:50:34.542Z,0.80
2023-02-26T07:53:01.385Z,0.70
2023-02-26T07:55:28.439Z,0.90
2023-02-26T07:57:55.025Z,0.70
2023-02-26T08:00:21.905Z,0.30
2023-02-26T08:02:48.608Z,0.30
2023-02-26T08:05:15.447Z,0.20
2023-02-26T08:07:42.080Z,0.20
2023-02-26T08:10:10.065Z,0.20
2023-02-26T08:12:36.836Z,0.20
2023-02-26T08:15:05.085Z,0.30
2023-02-26T08:17:32.184Z,0.30
2023-02-26T08:19:59.194Z,0.20
2023-02-26T08:22:25.900Z,0.30
2023-02-26T08:24:52.627Z,0.40
2023-02-26T08:27:19.389Z,0.60
2023-02-26T08:29:46.372Z,0.60
2023-02-26T08:32:15.600Z,0.50
2023-02-26T08:34:43.886Z,0.50
2023-02-26T08:37:14.232Z,0.30
2023-02-26T08:39:41.441Z,0.30
2023-02-26T08:42:09.456Z,0.30
2023-02-26T08:44:36.671Z,0.30
2023-02-26T08:47:03.971Z,0.20
2023-02-26T08:49:30.768Z,0.30
2023-02-26T08:51:57.747Z,0.10
2023-02-26T08:54:24.687Z,0.20
2023-02-26T08:56:53.270Z,0.20
2023-02-26T08:59:19.893Z,0.10
2023-02-26T09:01:46.665Z,0.30
2023-02-26T09:04:13.347Z,0.40
2023-02-26T09:06:40.072Z,0.60
2023-02-26T09:09:06.727Z,0.60
2023-02-26T09:11:33.686Z,0.60
2023-02-26T09:14:02.247Z,0.60
2023-02-26T09:16:29.987Z,0.70
2023-02-26T09:18:57.479Z,0.80
2023-02-26T09:21:24.360Z,0.80
2023-02-26T09:23:51.090Z,0.50
2023-02-26T09:26:17.702Z,0.50
2023-02-26T09:28:44.456Z,0.50
2023-02-26T09:31:11.275Z,0.30
2023-02-26T09:33:38.166Z,0.20
2023-02-26T09:36:05.416Z,0.40
2023-02-26T09:38:32.490Z,0.40
2023-02-26T09:41:11.822Z,0.60
2023-02-26T09:44:08.217Z,0.60
2023-02-26T09:46:44.399Z,0.60
2023-02-26T09:49:22.838Z,0.50
2023-02-26T09:51:54.472Z,0.60
2023-02-26T09:54:24.693Z,0.60
2023-02-26T09:56:53.696Z,0.80
2023-02-26T09:59:20.380Z,1.00
2023-02-26T10:01:52.987Z,0.90
2023-02-26T10:04:49.754Z,0.90
2023-02-26T10:07:59.804Z,1.00
2023-02-26T10:10:37.398Z,0.90
2023-02-26T10:13:04.862Z,0.60
2023-02-26T10:15:42.649Z,0.40
2023-02-26T10:18:32.227Z,0.50
2023-02-26T10:21:05.736Z,0.60
2023-02-26T10:23:48.923Z,0.40
2023-02-26T10:26:36.656Z,0.40
2023-02-26T10:29:15.243Z,0.50
2023-02-26T10:32:00.985Z,0.60
2023-02-26T10:34:54.192Z,0.70
2023-02-26T10:37:35.161Z,0.60
2023-02-26T10:40:23.334Z,0.60
2023-02-26T10:43:12.221Z,0.70
2023-02-26T10:46:03.720Z,0.60
2023-02-26T10:49:00.464Z,0.70
2023-02-26T10:51:35.102Z,1.00
2023-02-26T10:54:16.068Z,0.90
2023-02-26T10:56:42.940Z,0.60
2023-02-26T10:59:09.827Z,0.60
2023-02-26T11:01:37.288Z,0.70
2023-02-26T11:04:09.343Z,0.90
2023-02-26T11:06:42.668Z,1.10
2023-02-26T11:09:22.686Z,1.20
2023-02-26T11:12:19.523Z,1.30
2023-02-26T11:14:48.913Z,1.30
2023-02-26T11:17:23.527Z,1.10
2023-02-26T11:20:01.344Z,0.80
2023-02-26T11:22:33.327Z,0.70
2023-02-26T11:25:00.461Z,0.90
2023-02-26T11:27:32.001Z,1.10
2023-02-26T11:30:04.115Z,0.90
2023-02-26T11:32:52.105Z,1.00
2023-02-26T11:35:22.711Z,0.80
2023-02-26T11:37:55.910Z,0.80
2023-02-26T11:40:28.820Z,1.00
2023-02-26T11:42:59.418Z,0.80
2023-02-26T11:45:26.720Z,0.80
2023-02-26T11:48:16.174Z,0.80
2023-02-26T11:50:47.432Z,0.80
2023-02-26T11:53:27.059Z,0.80
2023-02-26T11:56:22.246Z,0.90
2023-02-26T11:58:55.163Z,0.70
2023-02-26T12:01:28.071Z,0.70
2023-02-26T12:04:00.776Z,0.70
2023-02-26T12:06:27.675Z,0.80
2023-02-26T12:08:54.545Z,1.10
2023-02-26T12:11:32.862Z,1.20
2023-02-26T12:14:29.267Z,1.20
2023-02-26T12:17:02.231Z,1.20
2023-02-26T12:19:42.547Z,1.30
2023-02-26T12:22:20.749Z,1.30
2023-02-26T12:25:14.886Z,1.40
2023-02-26T12:27:56.534Z,1.30
2023-02-26T12:31:03.185Z,1.20
2023-02-26T12:33:35.698Z,1.10
2023-02-26T12:36:07.859Z,1.20
2023-02-26T12:38:48.986Z,1.20
2023-02-26T12:41:42.501Z,1.00
2023-02-26T12:44:36.886Z,0.90
2023-02-26T12:47:22.044Z,0.80
2023-02-26T12:50:08.415Z,0.80
2023-02-26T12:52:45.529Z,0.80
2023-02-26T12:55:15.249Z,0.80
2023-02-26T12:57:50.832Z,0.80
2023-02-26T13:00:49.087Z,0.80
2023-02-26T13:03:43.441Z,0.90
2023-02-26T13:06:27.800Z,1.00
2023-02-26T13:09:20.717Z,1.20
2023-02-26T13:12:10.500Z,1.10
2023-02-26T13:14:58.333Z,1.00
2023-02-26T13:17:40.133Z,1.00
2023-02-26T13:20:17.303Z,0.90
2023-02-26T13:22:51.707Z,0.90
2023-02-26T13:25:18.355Z,0.90
2023-02-26T13:27:47.669Z,0.90
2023-02-26T13:30:45.554Z,1.00
2023-02-26T13:33:19.659Z,1.00
2023-02-26T13:35:48.537Z,1.00
2023-02-26T13:38:21.200Z,0.80
2023-02-26T13:41:03.490Z,0.90
2023-02-26T13:43:38.040Z,0.90
2023-02-26T13:46:20.913Z,1.00
2023-02-26T13:49:03.851Z,0.90
2023-02-26T13:51:40.843Z,0.90
2023-02-26T13:54:09.248Z,1.00
2023-02-26T13:56:36.117Z,0.90
2023-02-26T13:59:13.345Z,0.80
2023-02-26T14:02:03.312Z,0.60
2023-02-26T14:04:32.523Z,0.90
2023-02-26T14:07:10.508Z,1.00
2023-02-26T14:09:44.096Z,0.90
2023-02-26T14:12:25.130Z,0.80
2023-02-26T14:15:11.944Z,0.80
2023-02-26T14:17:50.632Z,0.90
2023-02-26T14:20:20.061Z,0.80
2023-02-26T14:23:10.864Z,0.80
2023-02-26T14:25:41.047Z,0.80
2023-02-26T14:28:30.327Z,0.80
2023-02-26T14:31:03.334Z,0.90
2023-02-26T14:33:32.223Z,0.90
2023-02-26T14:36:14.409Z,0.90
2023-02-26T14:38:42.598Z,0.90
2023-02-26T14:41:25.704Z,0.80
2023-02-26T14:44:24.641Z,0.90
2023-02-26T14:46:55.045Z,0.90
2023-02-26T14:49:44.066Z,1.00
2023-02-26T14:52:10.596Z,1.00
2023-02-26T14:54:48.645Z,1.10
2023-02-26T14:57:37.672Z,1.20
2023-02-26T15:01:04.431Z,1.10
2023-02-26T15:04:26.965Z,1.10
2023-02-26T15:07:28.199Z,1.20
2023-02-26T15:10:02.269Z,1.10
2023-02-26T15:13:08.939Z,1.10
2023-02-26T15:15:56.073Z,1.10
2023-02-26T15:18:44.447Z,1.10
2023-02-26T15:21:29.250Z,1.10
2023-02-26T15:23:58.124Z,1.00
2023-02-26T15:26:32.772Z,1.00
2023-02-26T15:29:06.375Z,1.10
2023-02-26T15:32:03.392Z,1.10
2023-02-26T15:34:30.929Z,1.10
2023-02-26T15:36:58.352Z,1.00
2023-02-26T15:39:25.484Z,1.10
2023-02-26T15:41:55.222Z,1.00
2023-02-26T15:44:31.560Z,1.10
2023-02-26T15:47:02.064Z,1.20
2023-02-26T15:49:41.185Z,1.10
2023-02-26T15:52:12.516Z,1.00
2023-02-26T15:54:43.050Z,0.80
2023-02-26T15:57:14.676Z,0.80
2023-02-26T15:59:45.448Z,0.70
2023-02-26T16:02:20.366Z,0.80
2023-02-26T16:04:47.053Z,0.80
2023-02-26T16:07:14.390Z,0.80
2023-02-26T16:09:52.902Z,0.60
2023-02-26T16:12:49.098Z,0.70
2023-02-26T16:15:32.881Z,0.70
2023-02-26T16:18:01.596Z,0.70
2023-02-26T16:20:32.757Z,0.80
2023-02-26T16:23:06.101Z,0.90
2023-02-26T16:25:39.750Z,0.90
2023-02-26T16:28:20.911Z,0.70
2023-02-26T16:30:54.236Z,0.90
2023-02-26T16:33:23.909Z,0.80
2023-02-26T16:36:06.105Z,0.80
2023-02-26T16:38:56.412Z,0.80
2023-02-26T16:41:26.003Z,0.80
2023-02-26T16:43:57.507Z,0.80
2023-02-26T16:46:44.802Z,0.80
2023-02-26T16:49:11.433Z,0.90
2023-02-26T16:51:40.738Z,0.90
2023-02-26T16:54:22.136Z,0.90
2023-02-26T16:56:57.381Z,0.90
2023-02-26T16:59:32.198Z,0.90
2023-02-26T17:02:19.198Z,0.80
2023-02-26T17:04:57.798Z,0.80
2023-02-26T17:07:31.145Z,0.80
2023-02-26T17:10:16.409Z,0.90
2023-02-26T17:12:49.497Z,1.00
2023-02-26T17:15:20.963Z,1.00
2023-02-26T17:17:48.504Z,1.10
2023-02-26T17:20:15.376Z,1.20
2023-02-26T17:22:43.901Z,1.10
2023-02-26T17:25:18.633Z,1.20
2023-02-26T17:27:46.840Z,1.20
2023-02-26T17:30:20.881Z,1.10
2023-02-26T17:32:48.024Z,1.10
2023-02-26T17:35:17.156Z,1.20
2023-02-26T17:37:46.818Z,1.20
2023-02-26T17:40:23.847Z,1.10
2023-02-26T17:42:52.627Z,1.10
2023-02-26T17:45:20.533Z,1.10
2023-02-26T17:47:49.080Z,1.10
2023-02-26T17:50:34.813Z,1.10
2023-02-26T17:53:01.729Z,1.20
2023-02-26T17:55:28.380Z,1.10
2023-02-26T17:57:56.508Z,1.00
2023-02-26T18:00:23.737Z,1.00
2023-02-26T18:02:51.541Z,1.00
2023-02-26T18:05:19.428Z,1.10
2023-02-26T18:07:47.629Z,1.10
2023-02-26T18:10:20.809Z,1.10
2023-02-26T18:12:47.956Z,1.00
2023-02-26T18:15:15.263Z,0.90
2023-02-26T18:17:43.038Z,0.90
2023-02-26T18:20:19.547Z,1.00
2023-02-26T18:22:47.909Z,0.80
2023-02-26T18:25:15.526Z,0.90
2023-02-26T18:27:54.736Z,0.80
2023-02-26T18:30:25.875Z,0.70
2023-02-26T18:32:52.632Z,0.80
2023-02-26T18:35:19.342Z,0.80
2023-02-26T18:37:46.525Z,0.80
2023-02-26T18:40:15.736Z,0.80
2023-02-26T18:42:42.837Z,0.70
2023-02-26T18:45:11.035Z,0.70
2023-02-26T18:47:39.003Z,0.70
2023-02-26T18:50:07.354Z,0.70
2023-02-26T18:52:34.612Z,0.80
2023-02-26T18:55:03.018Z,0.80
2023-02-26T18:57:30.676Z,0.80
2023-02-26T18:59:57.380Z,0.80
2023-02-26T19:02:24.050Z,0.90
2023-02-26T19:04:51.075Z,0.80
2023-02-26T19:07:17.984Z,0.80
2023-02-26T19:09:44.709Z,0.80
2023-02-26T19:12:17.460Z,0.80
2023-02-26T19:14:44.103Z,0.80
2023-02-26T19:17:10.825Z,0.80
2023-02-26T19:19:37.612Z,0.80
2023-02-26T19:22:04.272Z,0.80
2023-02-26T19:24:31.019Z,0.80
2023-02-26T19:26:57.714Z,0.80
2023-02-26T19:29:24.341Z,0.80
2023-02-26T19:31:51.157Z,0.90
2023-02-26T19:34:17.921Z,0.90
2023-02-26T19:36:49.141Z,0.90
2023-02-26T19:39:18.426Z,0.90
2023-02-26T19:41:46.284Z,1.00
2023-02-26T19:44:12.986Z,1.00
2023-02-26T19:46:41.683Z,0.70
2023-02-26T19:49:09.853Z,0.70
2023-02-26T19:51:37.727Z,0.70
2023-02-26T19:54:05.227Z,0.60
2023-02-26T19:56:32.400Z,0.60
2023-02-26T19:58:59.068Z,0.60
2023-02-26T20:01:25.727Z,0.60
2023-02-26T20:03:52.344Z,0.70
2023-02-26T20:06:20.310Z,0.70
2023-02-26T20:08:47.664Z,0.80
2023-02-26T20:11:14.565Z,0.70
2023-02-26T20:13:41.177Z,0.60
2023-02-26T20:16:09.287Z,0.60
2023-02-26T20:18:36.707Z,0.70
2023-02-26T20:21:08.091Z,0.70
2023-02-26T20:23:37.491Z,0.60
2023-02-26T20:26:06.552Z,0.70
2023-02-26T20:28:33.550Z,0.60
2023-02-26T20:31:00.405Z,0.60
2023-02-26T20:33:27.255Z,0.60
2023-02-26T20:35:54.577Z,0.70
2023-02-26T20:38:22.899Z,0.80
2023-02-26T20:40:49.691Z,0.70
2023-02-26T20:43:16.581Z,0.70
2023-02-26T20:45:43.203Z,0.60
2023-02-26T20:48:10.529Z,0.50
2023-02-26T20:50:38.026Z,0.50
2023-02-26T20:53:06.047Z,0.50
2023-02-26T20:55:33.567Z,0.60
2023-02-26T20:58:00.245Z,0.50
2023-02-26T21:00:27.022Z,0.50
2023-02-26T21:02:53.705Z,0.50
2023-02-26T21:05:20.519Z,0.40
2023-02-26T21:07:47.542Z,0.50
2023-02-26T21:10:16.948Z,0.60
2023-02-26T21:12:43.770Z,0.50
2023-02-26T21:15:11.743Z,0.50
2023-02-26T21:17:42.876Z,0.50
2023-02-26T21:20:17.806Z,0.50
2023-02-26T21:22:46.118Z,0.50
2023-02-26T21:25:13.412Z,0.50
2023-02-26T21:27:40.348Z,0.50
2023-02-26T21:30:08.589Z,0.60
2023-02-26T21:32:35.669Z,0.60
2023-02-26T21:35:02.294Z,0.60
2023-02-26T21:37:29.252Z,0.60
2023-02-26T21:39:56.256Z,0.60
2023-02-26T21:42:23.490Z,0.60
2023-02-26T21:44:50.127Z,0.60
2023-02-26T21:47:17.128Z,0.60
2023-02-26T21:49:44.286Z,0.60
2023-02-26T21:52:12.124Z,0.70
2023-02-26T21:54:38.782Z,0.70
2023-02-26T21:57:06.415Z,0.70
2023-02-26T21:59:33.279Z,0.60
2023-02-26T22:01:59.982Z,0.60
2023-02-26T22:04:26.809Z,0.60
2023-02-26T22:06:53.467Z,0.60
2023-02-26T22:09:20.352Z,0.60
2023-02-26T22:11:47.371Z,0.70
2023-02-26T22:14:14.534Z,0.70
2023-02-26T22:16:41.271Z,0.60
2023-02-26T22:19:07.860Z,0.60
2023-02-26T22:21:34.578Z,0.60
2023-02-26T22:24:02.951Z,0.60
2023-02-26T22:26:30.724Z,0.60
2023-02-26T22:29:00.026Z,0.50
2023-02-26T22:31:29.165Z,0.60
2023-02-26T22:33:57.298Z,0.60
2023-02-26T22:36:24.968Z,0.60
2023-02-26T22:38:51.609Z,0.60
2023-02-26T22:41:18.224Z,0.70
2023-02-26T22:43:44.858Z,0.70
2023-02-26T22:46:11.495Z,0.60
2023-02-26T22:48:38.176Z,0.70
2023-02-26T22:51:04.894Z,0.60
2023-02-26T22:53:31.870Z,0.60
2023-02-26T22:55:58.577Z,0.50
2023-02-26T22:58:25.211Z,0.50
2023-02-26T23:01:01.945Z,0.50
2023-02-26T23:03:29.504Z,0.40
2023-02-26T23:05:56.865Z,0.50
2023-02-26T23:08:23.631Z,0.50
2023-02-26T23:10:50.376Z,0.70
2023-02-26T23:13:17.024Z,0.60
2023-02-26T23:15:43.726Z,0.70
2023-02-26T23:18:10.314Z,0.70
2023-02-26T23:20:36.957Z,0.60
2023-02-26T23:23:03.551Z,0.60
2023-02-26T23:25:30.448Z,0.60
2023-02-26T23:27:57.026Z,0.50
2023-02-26T23:30:23.913Z,0.60
2023-02-26T23:32:50.912Z,0.70
2023-02-26T23:35:17.557Z,0.70
2023-02-26T23:37:44.293Z,0.70
2023-02-26T23:40:14.455Z,0.50
2023-02-26T23:42:44.771Z,0.40
2023-02-26T23:45:12.334Z,0.60
2023-02-26T23:47:38.953Z,0.50
2023-02-26T23:50:06.716Z,0.60
2023-02-26T23:52:34.307Z,0.60
2023-02-26T23:55:02.457Z,0.50
2023-02-26T23:57:29.104Z,0.50
2023-02-26T23:59:55.711Z,0.60
